createdAt,value
2018-07-19T00:01:28.931Z,6.03
2018-07-19T00:03:57.707Z,6.40
2018-07-19T00:06:26.159Z,5.57
2018-07-19T00:08:54.853Z,5.60
2018-07-19T00:11:23.534Z,8.63
2018-07-19T00:13:52.570Z,6.00
2018-07-19T00:16:21.257Z,5.97
2018-07-19T00:18:50.056Z,6.40
2018-07-19T00:21:18.437Z,6.30
2018-07-19T00:23:47.334Z,5.90
2018-07-19T00:26:16.011Z,6.12
2018-07-19T00:28:44.754Z,6.30
2018-07-19T00:31:13.459Z,6.03
2018-07-19T00:33:42.180Z,7.10
2018-07-19T00:36:12.824Z,6.22
2018-07-19T00:38:41.767Z,6.45
2018-07-19T00:41:10.535Z,6.58
2018-07-19T00:43:39.236Z,6.08
2018-07-19T00:46:08.065Z,6.20
2018-07-19T00:48:36.785Z,6.20
2018-07-19T00:51:05.772Z,5.80
2018-07-19T00:53:34.570Z,6.33
2018-07-19T00:56:03.294Z,6.20
2018-07-19T00:58:31.970Z,6.45
2018-07-19T01:01:00.786Z,5.97
2018-07-19T01:03:29.177Z,5.97
2018-07-19T01:05:57.953Z,6.25
2018-07-19T01:08:28.474Z,6.47
2018-07-19T01:10:57.214Z,7.03
2018-07-19T01:13:25.924Z,6.10
2018-07-19T01:15:54.695Z,6.87
2018-07-19T01:18:23.521Z,6.53
2018-07-19T01:20:52.263Z,6.53
2018-07-19T01:23:21.103Z,6.40
2018-07-19T01:25:49.791Z,6.20
2018-07-19T01:28:18.464Z,6.50
2018-07-19T01:30:47.135Z,6.60
2018-07-19T01:33:17.568Z,6.65
2018-07-19T01:35:46.180Z,6.90
2018-07-19T01:38:15.670Z,6.40
2018-07-19T01:40:44.393Z,6.65
2018-07-19T01:43:14.488Z,6.70
2018-07-19T01:45:43.244Z,6.58
2018-07-19T01:48:11.927Z,7.05
2018-07-19T01:50:40.675Z,7.03
2018-07-19T01:53:09.440Z,6.97
2018-07-19T01:55:38.258Z,6.97
2018-07-19T01:58:06.975Z,6.90
2018-07-19T02:00:35.690Z,6.87
2018-07-19T02:03:04.343Z,6.65
2018-07-19T02:05:33.093Z,6.95
2018-07-19T02:08:01.860Z,6.95
2018-07-19T02:10:30.130Z,6.70
2018-07-19T02:12:58.859Z,6.70
2018-07-19T02:15:28.187Z,7.10
2018-07-19T02:17:56.887Z,6.92
2018-07-19T02:20:25.566Z,6.92
2018-07-19T02:22:54.286Z,6.65
2018-07-19T02:25:22.694Z,7.05
2018-07-19T02:27:52.626Z,6.70
2018-07-19T02:30:21.403Z,6.70
2018-07-19T02:32:50.614Z,6.87
2018-07-19T02:35:19.238Z,7.00
2018-07-19T02:37:50.249Z,7.50
2018-07-19T02:40:18.877Z,7.28
2018-07-19T02:42:49.419Z,6.90
2018-07-19T02:45:18.224Z,7.37
2018-07-19T02:47:48.474Z,7.75
2018-07-19T02:50:17.201Z,8.05
2018-07-19T02:52:45.884Z,7.62
2018-07-19T02:55:14.596Z,7.30
2018-07-19T02:57:43.335Z,7.85
2018-07-19T03:00:12.062Z,7.60
2018-07-19T03:02:40.776Z,7.60
2018-07-19T03:05:10.470Z,8.40
2018-07-19T03:07:39.319Z,8.10
2018-07-19T03:10:07.763Z,7.60
2018-07-19T03:12:36.484Z,7.75
2018-07-19T03:15:04.742Z,7.60
2018-07-19T03:17:33.426Z,7.78
2018-07-19T03:20:02.186Z,7.90
2018-07-19T03:22:30.898Z,8.87
2018-07-19T03:24:59.711Z,8.60
2018-07-19T03:27:28.092Z,8.35
2018-07-19T03:29:56.861Z,8.53
2018-07-19T03:32:25.456Z,9.00
2018-07-19T03:34:54.244Z,9.10
2018-07-19T03:37:22.868Z,8.20
2018-07-19T03:39:53.847Z,8.73
2018-07-19T03:42:22.541Z,9.30
2018-07-19T03:44:52.686Z,8.73
2018-07-19T03:47:21.290Z,9.00
2018-07-19T03:49:50.370Z,9.03
2018-07-19T03:52:19.227Z,8.90
2018-07-19T03:54:47.915Z,8.33
2018-07-19T03:57:18.344Z,8.50
2018-07-19T03:59:47.083Z,9.53
2018-07-19T04:02:15.453Z,8.75
2018-07-19T04:04:44.288Z,8.47
2018-07-19T04:07:12.978Z,8.85
2018-07-19T04:09:41.688Z,8.60
2018-07-19T04:12:10.493Z,8.58
2018-07-19T04:14:39.203Z,8.45
2018-07-19T04:17:07.716Z,9.23
2018-07-19T04:19:36.060Z,9.53
2018-07-19T04:22:04.925Z,10.48
2018-07-19T04:24:33.868Z,9.85
2018-07-19T04:27:03.115Z,9.05
2018-07-19T04:29:31.930Z,9.15
2018-07-19T04:32:00.205Z,9.55
2018-07-19T04:34:28.907Z,9.55
2018-07-19T04:36:57.628Z,9.60
2018-07-19T04:39:26.274Z,9.30
2018-07-19T04:41:54.992Z,9.38
2018-07-19T04:44:23.458Z,9.15
2018-07-19T04:46:56.347Z,9.10
2018-07-19T04:49:27.576Z,9.83
2018-07-19T04:51:56.405Z,10.00
2018-07-19T04:54:26.316Z,8.68
2018-07-19T04:56:55.115Z,9.05
2018-07-19T04:59:24.029Z,9.10
2018-07-19T05:01:53.080Z,8.70
2018-07-19T05:04:21.620Z,7.75
2018-07-19T05:06:50.312Z,8.20
2018-07-19T05:09:18.996Z,7.95
2018-07-19T05:11:47.743Z,8.23
2018-07-19T05:14:18.094Z,8.53
2018-07-19T05:16:46.974Z,8.25
2018-07-19T05:19:15.772Z,8.70
2018-07-19T05:21:44.553Z,7.40
2018-07-19T05:24:13.337Z,7.92
2018-07-19T05:26:42.114Z,7.75
2018-07-19T05:29:10.941Z,8.55
2018-07-19T05:31:39.691Z,8.00
2018-07-19T05:34:08.166Z,7.75
2018-07-19T05:36:36.565Z,8.20
2018-07-19T05:39:07.875Z,7.83
2018-07-19T05:41:36.618Z,7.70
2018-07-19T05:44:05.439Z,7.37
2018-07-19T05:46:34.200Z,6.75
2018-07-19T05:49:02.962Z,5.95
2018-07-19T05:51:31.640Z,6.15
2018-07-19T05:54:02.188Z,6.08
2018-07-19T05:56:30.782Z,7.47
2018-07-19T05:58:59.588Z,6.78
2018-07-19T06:01:28.544Z,7.15
2018-07-19T06:03:57.398Z,7.20
2018-07-19T06:06:26.217Z,6.80
2018-07-19T06:08:54.935Z,6.87
2018-07-19T06:11:23.192Z,7.25
2018-07-19T06:13:51.873Z,7.62
2018-07-19T06:16:20.576Z,7.17
2018-07-19T06:18:49.053Z,7.40
2018-07-19T06:21:17.834Z,7.55
2018-07-19T06:23:47.773Z,6.67
2018-07-19T06:26:16.859Z,7.28
2018-07-19T06:28:45.728Z,7.15
2018-07-19T06:31:14.414Z,7.20
2018-07-19T06:33:43.684Z,7.35
2018-07-19T06:36:12.371Z,7.83
2018-07-19T06:38:41.126Z,7.12
2018-07-19T06:41:14.387Z,7.22
2018-07-19T06:43:46.913Z,6.47
2018-07-19T06:46:15.792Z,6.92
2018-07-19T06:48:44.630Z,7.47
2018-07-19T06:51:13.399Z,6.57
2018-07-19T06:53:42.169Z,6.12
2018-07-19T06:56:12.399Z,7.20
2018-07-19T06:58:41.539Z,6.05
2018-07-19T07:01:10.365Z,6.10
2018-07-19T07:03:39.108Z,5.90
2018-07-19T07:06:07.871Z,5.60
2018-07-19T07:08:37.925Z,5.33
2018-07-19T07:11:06.828Z,5.33
2018-07-19T07:13:35.940Z,4.80
2018-07-19T07:16:05.610Z,4.83
2018-07-19T07:18:34.294Z,4.50
2018-07-19T07:21:03.285Z,4.00
2018-07-19T07:23:32.018Z,4.22
2018-07-19T07:26:00.928Z,4.30
2018-07-19T07:28:29.801Z,4.25
2018-07-19T07:30:58.724Z,4.00
2018-07-19T07:33:29.090Z,4.00
2018-07-19T07:35:58.133Z,3.60
2018-07-19T07:38:27.467Z,3.93
2018-07-19T07:40:56.168Z,4.00
2018-07-19T07:43:24.850Z,3.80
2018-07-19T07:45:53.315Z,4.00
2018-07-19T07:48:22.079Z,3.80
2018-07-19T07:50:50.865Z,3.77
2018-07-19T07:53:19.670Z,3.52
2018-07-19T07:55:48.499Z,3.60
2018-07-19T07:58:17.297Z,3.85
2018-07-19T08:00:46.227Z,3.70
2018-07-19T08:03:15.011Z,3.33
2018-07-19T08:05:43.834Z,3.40
2018-07-19T08:08:12.777Z,3.40
2018-07-19T08:10:41.682Z,3.40
2018-07-19T08:13:10.792Z,3.37
2018-07-19T08:15:39.500Z,3.17
2018-07-19T08:18:08.289Z,2.90
2018-07-19T08:20:37.674Z,3.00
2018-07-19T08:23:06.901Z,3.08
2018-07-19T08:25:38.290Z,3.05
2018-07-19T08:28:07.017Z,3.05
2018-07-19T08:30:35.844Z,3.22
2018-07-19T08:33:04.838Z,2.95
2018-07-19T08:35:33.298Z,2.80
2018-07-19T08:38:02.482Z,2.92
2018-07-19T08:40:31.339Z,3.30
2018-07-19T08:43:00.079Z,3.20
2018-07-19T08:45:29.275Z,3.02
2018-07-19T08:47:58.181Z,3.30
2018-07-19T08:50:26.617Z,3.25
2018-07-19T08:52:56.391Z,3.43
2018-07-19T08:55:25.119Z,3.37
2018-07-19T08:57:56.003Z,3.30
2018-07-19T09:00:26.891Z,3.45
2018-07-19T09:03:00.281Z,3.63
2018-07-19T09:05:29.551Z,3.50
2018-07-19T09:07:59.259Z,3.60
2018-07-19T09:10:28.104Z,3.87
2018-07-19T09:12:57.864Z,3.13
2018-07-19T09:15:26.352Z,3.37
2018-07-19T09:18:00.133Z,3.67
2018-07-19T09:20:32.755Z,4.10
2018-07-19T09:23:06.914Z,3.83
2018-07-19T09:25:35.754Z,3.60
2018-07-19T09:28:04.706Z,3.45
2018-07-19T09:30:33.514Z,3.72
2018-07-19T09:33:02.226Z,3.77
2018-07-19T09:35:30.680Z,3.55
2018-07-19T09:37:59.427Z,3.80
2018-07-19T09:40:28.060Z,3.50
2018-07-19T09:43:05.558Z,3.57
2018-07-19T09:45:42.322Z,3.70
2018-07-19T09:48:21.241Z,3.90
2018-07-19T09:50:55.471Z,3.42
2018-07-19T09:53:25.231Z,4.00
2018-07-19T09:55:53.705Z,3.83
2018-07-19T09:58:22.078Z,9.53
2018-07-19T10:00:56.012Z,2.90
2018-07-19T10:03:24.729Z,2.85
2018-07-19T10:05:53.745Z,6.55
2018-07-19T10:08:22.543Z,3.72
2018-07-19T10:10:51.361Z,2.83
2018-07-19T10:13:19.733Z,3.00
2018-07-19T10:17:26.055Z,3.52
2018-07-19T10:19:54.707Z,2.67
2018-07-19T10:22:23.374Z,2.80
2018-07-19T10:24:52.211Z,2.40
2018-07-19T10:27:21.019Z,2.60
2018-07-19T10:29:49.781Z,3.05
2018-07-19T10:32:18.764Z,2.40
2018-07-19T10:34:47.508Z,2.30
2018-07-19T10:37:16.650Z,2.10
2018-07-19T10:39:45.715Z,3.50
2018-07-19T10:42:14.783Z,2.10
2018-07-19T10:44:43.278Z,2.33
2018-07-19T10:47:12.182Z,2.27
2018-07-19T10:49:41.101Z,2.20
2018-07-19T10:52:09.864Z,2.50
2018-07-19T10:54:38.615Z,2.08
2018-07-19T10:57:07.733Z,3.27
2018-07-19T10:59:38.463Z,2.77
2018-07-19T11:02:07.260Z,2.87
2018-07-19T11:04:36.039Z,2.00
2018-07-19T11:07:05.160Z,2.87
2018-07-19T11:09:34.102Z,2.10
2018-07-19T11:12:03.210Z,2.22
2018-07-19T11:14:33.245Z,2.40
2018-07-19T11:17:01.946Z,2.10
2018-07-19T11:19:45.673Z,2.30
2018-07-19T11:22:14.465Z,2.17
2018-07-19T11:24:45.368Z,2.40
2018-07-19T11:27:14.155Z,2.20
2018-07-19T11:29:42.883Z,2.10
2018-07-19T11:32:11.820Z,2.00
2018-07-19T11:34:42.491Z,2.40
2018-07-19T11:37:11.594Z,2.80
2018-07-19T11:39:40.359Z,2.40
2018-07-19T11:42:09.168Z,5.10
2018-07-19T11:44:38.575Z,2.60
2018-07-19T11:47:07.267Z,2.17
2018-07-19T11:49:42.239Z,2.20
2018-07-19T11:52:19.656Z,2.45
2018-07-19T11:54:48.861Z,2.05
2018-07-19T11:57:17.729Z,2.17
2018-07-19T11:59:46.418Z,2.27
2018-07-19T12:02:15.196Z,2.15
2018-07-19T12:04:43.997Z,2.20
2018-07-19T12:07:13.800Z,2.37
2018-07-19T12:09:42.595Z,2.22
2018-07-19T12:12:11.847Z,2.22
2018-07-19T12:14:43.961Z,2.45
2018-07-19T12:17:13.060Z,2.15
2018-07-19T12:19:42.092Z,2.25
2018-07-19T12:22:11.013Z,2.33
2018-07-19T12:24:40.000Z,2.63
2018-07-19T12:27:08.878Z,2.47
2018-07-19T12:29:37.752Z,2.37
2018-07-19T12:32:06.730Z,3.08
2018-07-19T12:34:37.646Z,5.28
2018-07-19T12:37:06.459Z,2.92
2018-07-19T12:39:35.248Z,2.30
2018-07-19T12:42:04.249Z,2.30
2018-07-19T12:44:32.993Z,2.17
2018-07-19T12:47:01.754Z,2.25
2018-07-19T12:49:35.247Z,2.12
2018-07-19T12:52:08.174Z,2.10
2018-07-19T12:54:38.138Z,2.20
2018-07-19T12:57:07.255Z,2.20
2018-07-19T12:59:36.263Z,2.52
2018-07-19T13:02:05.205Z,2.20
2018-07-19T13:04:33.926Z,2.10
2018-07-19T13:07:02.933Z,2.15
2018-07-19T13:09:32.197Z,2.00
2018-07-19T13:12:01.107Z,1.80
2018-07-19T13:14:30.213Z,1.80
2018-07-19T13:16:59.185Z,2.40
2018-07-19T13:19:30.611Z,2.35
2018-07-19T13:21:59.418Z,2.10
2018-07-19T13:24:30.328Z,2.10
2018-07-19T13:26:59.412Z,2.17
2018-07-19T13:29:28.135Z,2.70
2018-07-19T13:31:59.991Z,2.10
2018-07-19T13:34:32.939Z,2.00
2018-07-19T13:37:06.055Z,2.30
2018-07-19T13:39:34.967Z,2.10
2018-07-19T13:42:06.223Z,2.50
2018-07-19T13:44:35.582Z,5.10
2018-07-19T13:47:04.278Z,6.30
2018-07-19T13:49:33.086Z,3.60
2018-07-19T13:52:01.931Z,2.02
2018-07-19T13:54:37.567Z,2.75
2018-07-19T13:57:06.792Z,2.00
2018-07-19T13:59:35.539Z,2.40
2018-07-19T14:02:04.284Z,2.13
2018-07-19T14:04:33.189Z,2.00
2018-07-19T14:07:01.958Z,2.10
2018-07-19T14:09:30.662Z,1.90
2018-07-19T14:12:04.599Z,2.00
2018-07-19T14:14:39.431Z,2.17
2018-07-19T14:17:39.280Z,1.75
2018-07-19T14:20:08.032Z,2.00
2018-07-19T14:22:38.069Z,2.17
2018-07-19T14:25:06.696Z,2.10
2018-07-19T14:27:35.475Z,2.17
2018-07-19T14:30:06.310Z,2.00
2018-07-19T14:32:36.821Z,2.00
2018-07-19T14:35:05.775Z,2.17
2018-07-19T14:37:35.398Z,2.43
2018-07-19T14:40:04.190Z,2.30
2018-07-19T14:42:33.417Z,2.10
2018-07-19T14:45:02.274Z,2.00
2018-07-19T14:47:30.983Z,2.60
2018-07-19T14:49:59.657Z,2.20
2018-07-19T14:52:28.380Z,2.20
2018-07-19T14:54:57.041Z,2.20
2018-07-19T14:57:25.763Z,1.92
2018-07-19T14:59:54.523Z,1.90
2018-07-19T15:02:23.219Z,2.08
2018-07-19T15:04:51.930Z,1.95
2018-07-19T15:07:20.628Z,1.90
2018-07-19T15:09:49.425Z,1.90
2018-07-19T15:12:18.195Z,2.30
2018-07-19T15:14:46.884Z,1.90
2018-07-19T15:17:18.702Z,1.87
2018-07-19T15:19:47.361Z,3.95
2018-07-19T15:22:16.196Z,2.33
2018-07-19T15:24:45.346Z,2.17
2018-07-19T15:27:14.502Z,2.17
2018-07-19T15:29:43.383Z,2.20
2018-07-19T15:32:12.167Z,2.15
2018-07-19T15:34:40.865Z,2.12
2018-07-19T15:37:10.029Z,1.90
2018-07-19T15:39:38.769Z,2.27
2018-07-19T15:42:08.173Z,2.60
2018-07-19T15:44:37.170Z,1.90
2018-07-19T15:47:06.006Z,2.80
2018-07-19T15:49:34.675Z,2.30
2018-07-19T15:52:03.738Z,2.40
2018-07-19T15:54:33.801Z,2.40
2018-07-19T15:57:02.548Z,2.40
2018-07-19T15:59:31.547Z,2.05
2018-07-19T16:02:00.358Z,2.12
2018-07-19T16:04:29.098Z,2.20
2018-07-19T16:06:57.995Z,2.60
2018-07-19T16:09:26.833Z,1.90
2018-07-19T16:11:55.549Z,2.02
2018-07-19T16:14:24.418Z,3.13
2018-07-19T16:16:53.208Z,2.17
2018-07-19T16:19:21.885Z,2.22
2018-07-19T16:21:50.752Z,2.25
2018-07-19T16:24:20.173Z,5.90
2018-07-19T16:26:49.043Z,3.90
2018-07-19T16:29:17.646Z,2.15
2018-07-19T16:31:46.461Z,3.75
2018-07-19T16:34:16.050Z,2.70
2018-07-19T16:36:44.841Z,2.90
2018-07-19T16:39:13.619Z,3.30
2018-07-19T16:41:42.382Z,2.10
2018-07-19T16:44:11.138Z,2.17
2018-07-19T16:46:39.865Z,2.42
2018-07-19T16:49:17.996Z,2.17
2018-07-19T16:51:51.974Z,2.40
2018-07-19T16:54:22.509Z,3.13
2018-07-19T16:56:51.238Z,2.33
2018-07-19T16:59:24.433Z,2.50
2018-07-19T17:01:53.517Z,2.62
2018-07-19T17:04:22.329Z,2.10
2018-07-19T17:06:51.018Z,2.60
2018-07-19T17:09:19.705Z,3.80
2018-07-19T17:11:48.385Z,2.20
2018-07-19T17:14:17.052Z,2.47
2018-07-19T17:16:45.775Z,2.30
2018-07-19T17:19:15.720Z,2.57
2018-07-19T17:21:44.487Z,3.77
2018-07-19T17:24:13.278Z,2.00
2018-07-19T17:26:42.095Z,2.30
2018-07-19T17:29:11.001Z,4.53
2018-07-19T17:31:39.630Z,2.50
2018-07-19T17:34:08.503Z,2.33
2018-07-19T17:36:37.226Z,2.12
2018-07-19T17:39:08.732Z,3.30
2018-07-19T17:41:37.567Z,3.60
2018-07-19T17:44:06.336Z,2.60
2018-07-19T17:46:35.004Z,3.57
2018-07-19T17:49:03.771Z,2.40
2018-07-19T17:51:32.602Z,3.72
2018-07-19T17:54:03.393Z,9.60
2018-07-19T17:56:32.198Z,4.67
2018-07-19T17:59:00.995Z,2.85
2018-07-19T18:01:29.662Z,3.58
2018-07-19T18:03:58.416Z,3.10
2018-07-19T18:06:27.290Z,2.62
2018-07-19T18:08:56.086Z,2.95
2018-07-19T18:11:24.772Z,2.52
2018-07-19T18:13:53.657Z,2.40
2018-07-19T18:16:22.614Z,2.10
2018-07-19T18:18:51.442Z,6.17
2018-07-19T18:21:28.054Z,3.67
2018-07-19T18:23:57.300Z,12.73
2018-07-19T18:26:25.995Z,3.20
2018-07-19T18:28:54.710Z,4.90
2018-07-19T18:31:23.527Z,11.20
2018-07-19T18:33:52.317Z,13.35
2018-07-19T18:36:21.024Z,3.52
2018-07-19T18:38:49.734Z,3.20
2018-07-19T18:41:18.578Z,3.40
2018-07-19T18:43:47.369Z,2.93
2018-07-19T18:46:16.373Z,2.80
2018-07-19T18:48:45.138Z,3.00
2018-07-19T18:51:14.008Z,2.90
2018-07-19T18:53:42.718Z,2.50
2018-07-19T18:56:12.130Z,2.50
2018-07-19T18:58:40.790Z,2.75
2018-07-19T19:01:09.941Z,2.83
2018-07-19T19:03:38.599Z,2.80
2018-07-19T19:06:07.649Z,2.67
2018-07-19T19:08:36.409Z,2.98
2018-07-19T19:11:05.261Z,3.00
2018-07-19T19:13:34.797Z,3.17
2018-07-19T19:16:03.564Z,5.62
2018-07-19T19:18:42.175Z,3.10
2018-07-19T19:21:20.733Z,4.53
2018-07-19T19:23:59.127Z,4.00
2018-07-19T19:26:28.773Z,3.60
2018-07-19T19:28:57.443Z,4.22
2018-07-19T19:31:26.368Z,3.50
2018-07-19T19:33:55.210Z,5.62
2018-07-19T19:36:24.706Z,3.67
2018-07-19T19:38:53.564Z,3.55
2018-07-19T19:41:22.474Z,3.25
2018-07-19T19:43:51.696Z,3.17
2018-07-19T19:46:20.968Z,3.05
2018-07-19T19:48:49.905Z,3.47
2018-07-19T19:51:18.681Z,4.70
2018-07-19T19:53:47.436Z,4.50
2018-07-19T19:56:16.163Z,4.60
2018-07-19T19:58:44.887Z,4.55
2018-07-19T20:01:13.713Z,5.03
2018-07-19T20:03:42.403Z,3.75
2018-07-19T20:06:11.267Z,4.75
2018-07-19T20:08:40.144Z,4.60
2018-07-19T20:11:09.242Z,4.90
2018-07-19T20:13:38.075Z,4.03
2018-07-19T20:16:06.812Z,5.42
2018-07-19T20:18:35.504Z,4.53
2018-07-19T20:21:05.169Z,3.87
2018-07-19T20:23:33.883Z,3.92
2018-07-19T20:26:02.632Z,3.58
2018-07-19T20:28:31.513Z,3.90
2018-07-19T20:31:00.214Z,3.77
2018-07-19T20:33:28.906Z,4.40
2018-07-19T20:35:57.581Z,3.85
2018-07-19T20:38:27.090Z,4.43
2018-07-19T20:40:55.809Z,3.33
2018-07-19T20:43:25.129Z,3.62
2018-07-19T20:45:53.841Z,3.67
2018-07-19T20:48:22.527Z,3.50
2018-07-19T20:50:51.342Z,4.08
2018-07-19T20:53:20.234Z,4.28
2018-07-19T20:55:49.168Z,3.77
2018-07-19T20:58:17.947Z,3.72
2018-07-19T21:00:46.717Z,3.77
2018-07-19T21:03:15.386Z,3.60
2018-07-19T21:05:44.074Z,4.05
2018-07-19T21:08:12.834Z,3.95
2018-07-19T21:10:41.458Z,4.37
2018-07-19T21:13:10.159Z,3.60
2018-07-19T21:15:38.940Z,3.80
2018-07-19T21:18:07.760Z,3.80
2018-07-19T21:20:36.415Z,3.92
2018-07-19T21:23:05.081Z,3.53
2018-07-19T21:25:33.727Z,3.62
2018-07-19T21:28:02.509Z,3.80
2018-07-19T21:30:31.856Z,3.55
2018-07-19T21:33:00.994Z,3.55
2018-07-19T21:35:29.816Z,3.30
2018-07-19T21:37:58.692Z,3.67
2018-07-19T21:40:27.344Z,3.98
2018-07-19T21:42:56.040Z,3.60
2018-07-19T21:45:24.711Z,3.42
2018-07-19T21:47:53.274Z,3.40
2018-07-19T21:50:22.121Z,3.40
2018-07-19T21:52:52.071Z,3.40
2018-07-19T21:55:21.118Z,3.25
2018-07-19T21:57:50.000Z,3.25
2018-07-19T22:00:18.722Z,3.62
2018-07-19T22:02:47.459Z,3.60
2018-07-19T22:05:16.208Z,3.20
2018-07-19T22:07:45.029Z,3.40
2018-07-19T22:10:13.788Z,3.45
2018-07-19T22:12:43.626Z,4.10
2018-07-19T22:15:12.338Z,4.28
2018-07-19T22:17:41.031Z,3.98
2018-07-19T22:20:09.880Z,3.80
2018-07-19T22:22:38.521Z,3.40
2018-07-19T22:25:08.139Z,4.03
2018-07-19T22:27:36.803Z,4.33
2018-07-19T22:30:05.680Z,3.98
2018-07-19T22:32:34.367Z,4.10
2018-07-19T22:35:03.223Z,3.98
2018-07-19T22:37:34.340Z,3.70
2018-07-19T22:40:03.057Z,3.80
2018-07-19T22:42:31.745Z,4.00
2018-07-19T22:45:00.445Z,4.60
2018-07-19T22:47:29.090Z,4.05
2018-07-19T22:49:59.913Z,4.40
2018-07-19T22:52:28.718Z,3.65
2018-07-19T22:54:58.499Z,3.90
2018-07-19T22:57:27.182Z,4.20
2018-07-19T22:59:55.919Z,3.80
2018-07-19T23:02:25.009Z,3.67
2018-07-19T23:04:53.698Z,3.67
2018-07-19T23:07:22.526Z,4.28
2018-07-19T23:09:51.243Z,3.70
2018-07-19T23:12:19.943Z,3.95
2018-07-19T23:14:48.745Z,3.75
2018-07-19T23:17:18.024Z,4.05
2018-07-19T23:19:46.754Z,4.10
2018-07-19T23:22:15.494Z,3.83
2018-07-19T23:24:44.180Z,3.90
2018-07-19T23:27:13.060Z,7.97
2018-07-19T23:29:41.822Z,4.20
2018-07-19T23:32:10.487Z,4.12
2018-07-19T23:34:39.536Z,3.80
2018-07-19T23:37:14.239Z,3.60
2018-07-19T23:39:52.187Z,3.80
2018-07-19T23:42:24.974Z,4.00
2018-07-19T23:45:00.679Z,4.40
2018-07-19T23:47:32.898Z,4.20
2018-07-19T23:50:01.718Z,4.77
2018-07-19T23:52:30.314Z,3.75
2018-07-19T23:54:59.109Z,4.28
2018-07-19T23:57:27.805Z,4.10
2018-07-19T23:59:56.466Z,4.17
